Time;durP1;ratioP1;P1;durP2;ratioP2;P2;SDS_P1;SDS_P2;PMS_P1;PMS_P2;Temp;Humidity;BMP_temperature;BMP_pressure;BME280_temperature;BME280_humidity;BME280_pressure;Samples;Min_cycle;Max_cycle;Signal;HPM_P1;HPM_P2
2022/03/22 00:00:36;;;;;;;17.48;8.95;;;10.50;1.00;;;;;;5052052;28;20474;-83
2022/03/22 00:03:04;;;;;;;19.42;9.57;;;10.50;1.00;;;;;;5052487;28;20424;-83
2022/03/22 00:05:33;;;;;;;15.52;9.25;;;10.50;1.00;;;;;;5053186;28;20516;-83
2022/03/22 00:08:00;;;;;;;13.23;9.00;;;10.50;1.00;;;;;;5051547;28;20055;-82
2022/03/22 00:10:27;;;;;;;16.00;9.73;;;10.50;1.00;;;;;;5050108;28;20032;-83
2022/03/22 00:12:52;;;;;;;13.07;9.20;;;10.60;1.00;;;;;;5052047;28;20497;-83
2022/03/22 00:15:19;;;;;;;17.80;9.25;;;10.50;1.00;;;;;;5051700;28;20028;-82
2022/03/22 00:17:44;;;;;;;13.57;8.57;;;10.50;1.00;;;;;;5051938;28;20125;-83
2022/03/22 00:20:11;;;;;;;16.77;9.68;;;10.50;1.00;;;;;;5054439;28;20497;-82
2022/03/22 00:22:40;;;;;;;14.80;8.68;;;10.40;1.00;;;;;;5051020;28;20414;-83
2022/03/22 00:25:07;;;;;;;15.20;9.10;;;10.40;1.00;;;;;;5051335;28;20021;-82
2022/03/22 00:30:22;;;;;;;15.18;8.73;;;10.20;1.00;;;;;;5051788;28;20060;-83
2022/03/22 00:32:53;;;;;;;17.50;9.27;;;10.20;1.00;;;;;;5051217;28;20045;-83
2022/03/22 00:35:26;;;;;;;15.68;9.30;;;10.10;1.00;;;;;;5053422;28;20036;-82
2022/03/22 00:37:53;;;;;;;16.90;9.55;;;10.20;1.00;;;;;;5051904;28;20047;-83
2022/03/22 00:40:20;;;;;;;19.58;9.13;;;10.00;1.00;;;;;;5051117;28;20477;-83
2022/03/22 00:42:48;;;;;;;15.82;8.77;;;10.30;1.00;;;;;;5049984;28;20461;-83
2022/03/22 00:45:18;;;;;;;16.15;9.35;;;10.20;1.00;;;;;;5049924;28;20041;-83
2022/03/22 00:47:48;;;;;;;12.82;8.80;;;10.00;1.00;;;;;;5051120;28;20025;-82
2022/03/22 00:50:16;;;;;;;12.77;8.48;;;10.30;1.00;;;;;;5053069;28;20057;-83
2022/03/22 00:52:42;;;;;;;17.85;8.80;;;10.20;1.00;;;;;;5050415;28;20036;-83
2022/03/22 00:55:10;;;;;;;15.40;8.43;;;10.40;1.00;;;;;;5051077;28;20037;-82
2022/03/22 00:57:36;;;;;;;14.23;9.20;;;10.10;1.00;;;;;;5050795;28;20086;-83
2022/03/22 01:00:06;;;;;;;13.18;8.63;;;10.50;1.00;;;;;;5051126;28;20032;-83
2022/03/22 01:02:37;;;;;;;14.40;9.13;;;10.00;1.00;;;;;;5052065;28;20108;-83
2022/03/22 01:05:07;;;;;;;14.90;9.10;;;10.10;1.00;;;;;;5053174;28;20143;-83
2022/03/22 01:07:33;;;;;;;17.40;9.25;;;9.90;1.00;;;;;;5050348;28;20398;-82
2022/03/22 01:10:05;;;;;;;17.45;9.18;;;10.20;1.00;;;;;;5050674;28;20032;-82
2022/03/22 01:12:32;;;;;;;15.07;8.98;;;9.80;1.00;;;;;;5050454;28;20029;-83
2022/03/22 01:14:58;;;;;;;14.95;8.80;;;9.80;1.00;;;;;;5050911;28;20121;-83
2022/03/22 01:17:23;;;;;;;14.23;8.98;;;9.70;1.00;;;;;;5052365;28;20119;-83
2022/03/22 01:19:49;;;;;;;14.85;8.32;;;9.60;1.00;;;;;;5051339;28;20040;-83
2022/03/22 01:22:16;;;;;;;17.50;9.43;;;10.20;1.00;;;;;;5050513;28;20045;-83
2022/03/22 01:24:43;;;;;;;18.92;8.77;;;9.70;1.00;;;;;;5048702;28;20396;-82
2022/03/22 01:27:09;;;;;;;17.92;9.45;;;9.70;1.00;;;;;;5049544;28;20041;-83
2022/03/22 01:29:34;;;;;;;21.30;9.68;;;9.70;1.00;;;;;;5051887;28;20036;-83
2022/03/22 01:32:00;;;;;;;15.38;8.95;;;9.70;1.00;;;;;;5049531;28;20048;-83
2022/03/22 01:34:26;;;;;;;18.83;9.27;;;9.60;1.00;;;;;;5050575;28;20037;-82
2022/03/22 01:36:52;;;;;;;20.45;9.70;;;9.40;1.00;;;;;;5048550;28;20123;-82
2022/03/22 01:39:18;;;;;;;13.10;9.75;;;9.40;1.00;;;;;;5050127;28;20124;-82
2022/03/22 01:41:43;;;;;;;16.45;10.07;;;9.70;1.00;;;;;;5050550;28;20108;-83
2022/03/22 01:44:09;;;;;;;17.75;9.88;;;9.20;1.00;;;;;;5052421;28;20539;-83
2022/03/22 01:46:36;;;;;;;17.42;9.38;;;9.60;1.00;;;;;;5049919;28;20059;-83
2022/03/22 01:49:02;;;;;;;15.57;9.30;;;9.30;1.00;;;;;;5050092;28;20040;-83
2022/03/22 01:51:31;;;;;;;15.15;9.65;;;9.00;1.00;;;;;;5049556;28;20017;-82
2022/03/22 01:53:58;;;;;;;13.15;8.90;;;9.50;1.00;;;;;;5034513;28;20033;-83
2022/03/22 01:56:24;;;;;;;16.30;9.85;;;9.30;1.00;;;;;;5052339;28;20033;-83
2022/03/22 01:58:50;;;;;;;14.57;9.27;;;9.40;1.00;;;;;;5049749;28;20033;-82
2022/03/22 02:06:46;;;;;;;17.88;9.85;;;9.00;1.00;;;;;;5048155;28;20031;-82
2022/03/22 02:09:11;;;;;;;15.35;9.73;;;8.60;1.00;;;;;;5050396;28;20517;-83
2022/03/22 02:11:38;;;;;;;18.02;11.40;;;8.70;1.00;;;;;;5050695;28;20036;-83
2022/03/22 02:14:04;;;;;;;18.13;9.85;;;8.50;1.00;;;;;;5051316;28;20044;-82
2022/03/22 02:16:31;;;;;;;19.20;10.50;;;8.50;1.00;;;;;;5049386;28;20086;-82
2022/03/22 02:18:57;;;;;;;19.38;10.60;;;8.70;1.00;;;;;;5049384;28;20022;-82
2022/03/22 02:21:25;;;;;;;19.20;10.65;;;8.30;1.00;;;;;;5049492;28;20039;-83
2022/03/22 02:23:53;;;;;;;20.25;11.05;;;8.20;1.00;;;;;;5050370;28;20071;-82
2022/03/22 02:26:20;;;;;;;19.80;10.95;;;8.20;1.00;;;;;;5051785;28;20021;-82
2022/03/22 02:28:46;;;;;;;17.58;10.75;;;8.30;1.00;;;;;;5047928;28;20108;-82
2022/03/22 02:31:15;;;;;;;16.30;10.85;;;8.00;1.00;;;;;;5050728;28;20040;-83
2022/03/22 02:33:42;;;;;;;21.00;10.55;;;7.90;1.00;;;;;;5053206;28;20051;-83
2022/03/22 02:36:08;;;;;;;15.63;11.00;;;8.50;1.00;;;;;;5053355;28;20116;-83
2022/03/22 02:38:33;;;;;;;14.25;10.52;;;8.00;1.00;;;;;;5055160;28;20068;-82
2022/03/22 02:40:59;;;;;;;17.90;10.85;;;8.10;1.00;;;;;;5054613;28;20141;-83
2022/03/22 02:43:25;;;;;;;16.33;11.20;;;7.80;1.00;;;;;;5050943;28;20036;-82
2022/03/22 02:45:50;;;;;;;17.45;10.88;;;8.20;1.00;;;;;;5051869;28;20039;-83
2022/03/22 02:48:18;;;;;;;16.77;10.52;;;7.80;1.00;;;;;;5051998;28;20044;-81
2022/03/22 02:50:43;;;;;;;17.92;10.45;;;7.90;1.00;;;;;;5053439;28;20033;-82
2022/03/22 02:53:09;;;;;;;19.45;11.02;;;7.50;1.00;;;;;;5055427;28;20023;-82
2022/03/22 02:55:36;;;;;;;21.35;11.00;;;7.70;1.00;;;;;;5052967;28;20049;-82
2022/03/22 02:58:01;;;;;;;19.98;10.15;;;8.20;1.00;;;;;;5052134;28;20025;-82
2022/03/22 03:00:27;;;;;;;17.70;11.18;;;7.60;1.00;;;;;;5053289;28;20044;-81
2022/03/22 03:02:53;;;;;;;17.35;10.45;;;7.50;1.00;;;;;;5052673;28;20037;-82
2022/03/22 03:05:20;;;;;;;15.98;9.55;;;7.70;1.00;;;;;;5054872;28;20033;-82
2022/03/22 03:07:47;;;;;;;17.38;10.82;;;7.90;1.00;;;;;;5053215;28;20557;-83
2022/03/22 03:10:13;;;;;;;17.65;10.40;;;7.40;1.00;;;;;;5053166;28;20041;-83
2022/03/22 03:12:39;;;;;;;20.02;11.07;;;8.00;1.00;;;;;;5052666;28;20409;-82
2022/03/22 03:15:07;;;;;;;13.98;10.25;;;7.30;1.00;;;;;;5052773;28;20523;-82
2022/03/22 03:17:33;;;;;;;19.15;11.30;;;7.30;1.00;;;;;;5054151;28;20488;-82
2022/03/22 03:19:59;;;;;;;18.30;10.85;;;7.50;1.00;;;;;;5053778;28;20017;-83
2022/03/22 03:22:24;;;;;;;17.90;10.40;;;7.70;1.00;;;;;;5052983;28;20626;-82
2022/03/22 03:24:50;;;;;;;17.80;9.93;;;7.40;1.00;;;;;;5051078;28;20032;-82
2022/03/22 03:27:16;;;;;;;18.55;10.30;;;7.60;1.00;;;;;;5052604;28;20036;-82
2022/03/22 03:29:42;;;;;;;18.83;10.27;;;7.40;1.00;;;;;;5052677;28;20018;-82
2022/03/22 03:32:08;;;;;;;20.25;10.98;;;7.50;1.00;;;;;;5054305;28;20106;-82
2022/03/22 03:34:33;;;;;;;18.95;11.93;;;7.00;1.00;;;;;;5052605;28;20086;-82
2022/03/22 03:36:59;;;;;;;16.33;10.90;;;7.00;1.00;;;;;;5052658;28;20459;-82
2022/03/22 03:39:25;;;;;;;18.52;10.60;;;7.40;1.00;;;;;;5052327;28;20496;-82
2022/03/22 03:41:53;;;;;;;15.60;10.60;;;7.60;1.00;;;;;;5052811;28;20408;-82
2022/03/22 03:47:07;;;;;;;16.08;10.80;;;7.50;1.00;;;;;;5053993;28;20028;-82
2022/03/22 03:49:44;;;;;;;20.13;10.48;;;6.70;1.00;;;;;;5052157;28;20082;-82
2022/03/22 03:52:18;;;;;;;15.88;10.80;;;6.80;1.00;;;;;;5051061;28;20031;-82
2022/03/22 03:54:44;;;;;;;23.63;10.35;;;7.40;1.00;;;;;;5052316;28;20033;-82
2022/03/22 03:57:10;;;;;;;16.17;10.75;;;7.20;1.00;;;;;;5049820;28;20046;-83
2022/03/22 03:59:38;;;;;;;14.38;9.88;;;7.10;1.00;;;;;;5054040;28;20020;-83
2022/03/22 04:02:06;;;;;;;17.50;11.30;;;7.10;1.00;;;;;;5051367;28;20053;-82
2022/03/22 04:04:32;;;;;;;19.42;10.75;;;6.70;1.00;;;;;;5050431;28;20025;-82
2022/03/22 04:06:57;;;;;;;16.58;10.77;;;7.00;1.00;;;;;;5052243;28;20425;-82
2022/03/22 04:09:23;;;;;;;15.75;9.82;;;7.10;1.00;;;;;;5052050;28;20295;-82
2022/03/22 04:11:48;;;;;;;17.98;10.65;;;6.80;1.00;;;;;;5051039;28;20028;-83
2022/03/22 04:14:14;;;;;;;17.05;10.45;;;7.00;1.00;;;;;;5052614;28;20086;-83
2022/03/22 04:16:41;;;;;;;15.13;10.48;;;6.70;1.00;;;;;;5051389;28;20051;-82
2022/03/22 04:19:08;;;;;;;17.38;10.13;;;6.70;1.00;;;;;;5051463;28;20021;-82
2022/03/22 04:21:34;;;;;;;17.77;10.30;;;6.80;1.00;;;;;;5051841;28;20028;-82
2022/03/22 04:24:08;;;;;;;15.70;10.30;;;6.80;1.00;;;;;;5051550;28;20107;-82
2022/03/22 04:26:40;;;;;;;16.17;10.60;;;6.50;1.00;;;;;;5052984;28;20041;-83
2022/03/22 04:34:38;;;;;;;16.48;10.70;;;6.80;1.00;;;;;;5051347;28;20523;-82
2022/03/22 04:37:06;;;;;;;16.23;10.55;;;6.80;1.00;;;;;;5051155;28;20036;-82
2022/03/22 04:39:33;;;;;;;18.95;11.35;;;6.50;1.00;;;;;;5050280;28;20028;-82
2022/03/22 04:41:59;;;;;;;17.80;10.63;;;6.80;1.00;;;;;;5050515;28;20051;-82
2022/03/22 04:44:29;;;;;;;16.90;10.35;;;6.30;1.00;;;;;;5052988;28;20061;-82
2022/03/22 04:46:56;;;;;;;17.65;10.38;;;6.60;1.00;;;;;;5050098;28;20036;-82
2022/03/22 04:49:22;;;;;;;15.20;9.13;;;6.90;1.00;;;;;;5051339;28;20029;-82
2022/03/22 04:57:17;;;;;;;16.33;9.95;;;6.40;1.00;;;;;;5050869;28;20094;-82
2022/03/22 04:59:43;;;;;;;14.40;9.02;;;6.60;1.00;;;;;;5050709;28;20477;-82
2022/03/22 05:02:09;;;;;;;16.52;10.40;;;6.60;1.00;;;;;;5053435;28;20053;-82
2022/03/22 05:04:35;;;;;;;18.20;9.32;;;6.70;1.00;;;;;;5050582;28;20044;-82
2022/03/22 05:07:01;;;;;;;16.95;9.68;;;6.50;1.00;;;;;;5050506;28;20031;-82
2022/03/22 05:09:30;;;;;;;19.58;10.80;;;6.60;1.00;;;;;;5050528;28;20546;-82
2022/03/22 05:11:57;;;;;;;18.90;9.30;;;6.90;1.00;;;;;;5035684;28;20033;-82
2022/03/22 05:14:22;;;;;;;15.10;10.73;;;7.00;1.00;;;;;;5052405;28;20030;-82
2022/03/22 05:16:48;;;;;;;15.93;9.85;;;6.90;1.00;;;;;;5050435;28;20433;-82
2022/03/22 05:19:14;;;;;;;21.10;10.80;;;6.70;1.00;;;;;;5049239;28;20037;-82
2022/03/22 05:21:40;;;;;;;16.40;10.57;;;6.60;1.00;;;;;;5048987;28;20040;-82
2022/03/22 05:24:07;;;;;;;11.60;9.20;;;6.30;1.00;;;;;;5050332;28;20020;-82
2022/03/22 05:26:33;;;;;;;14.43;9.77;;;6.30;1.00;;;;;;5051620;28;20405;-82
2022/03/22 05:28:59;;;;;;;17.65;9.70;;;6.40;1.00;;;;;;5050706;28;20033;-82
2022/03/22 05:31:24;;;;;;;17.30;9.35;;;6.40;1.00;;;;;;5049977;28;20044;-82
2022/03/22 05:33:52;;;;;;;17.90;9.45;;;6.70;1.00;;;;;;5050450;28;20043;-82
2022/03/22 05:36:18;;;;;;;14.00;10.38;;;6.30;1.00;;;;;;5050048;28;20277;-83
2022/03/22 05:38:43;;;;;;;21.15;9.32;;;6.20;1.00;;;;;;5050025;28;20492;-82
2022/03/22 05:41:09;;;;;;;14.15;9.35;;;6.50;1.00;;;;;;5052188;28;20086;-82
2022/03/22 05:43:35;;;;;;;16.92;10.15;;;6.80;1.00;;;;;;5050037;28;20032;-82
2022/03/22 05:46:02;;;;;;;15.43;10.60;;;7.10;1.00;;;;;;5049763;28;20044;-82
2022/03/22 05:48:29;;;;;;;18.75;10.23;;;6.80;1.00;;;;;;5050026;28;20104;-82
2022/03/22 05:50:55;;;;;;;18.88;11.50;;;6.90;1.00;;;;;;5034215;28;20029;-82
2022/03/22 05:53:21;;;;;;;14.50;9.90;;;6.40;1.00;;;;;;5051673;28;20032;-82
2022/03/22 05:55:47;;;;;;;18.75;9.60;;;6.70;1.00;;;;;;5047997;28;20041;-82
2022/03/22 05:58:13;;;;;;;16.83;9.68;;;6.40;1.00;;;;;;5049146;28;20025;-83
2022/03/22 06:00:39;;;;;;;13.93;9.88;;;6.90;1.00;;;;;;5048614;28;20079;-82
2022/03/22 06:03:05;;;;;;;16.65;9.77;;;6.40;1.00;;;;;;5049851;28;20083;-82
2022/03/22 06:05:30;;;;;;;17.58;10.43;;;6.30;1.00;;;;;;5050077;28;20452;-81
2022/03/22 06:07:58;;;;;;;15.93;9.90;;;6.60;1.00;;;;;;5049944;28;20378;-81
2022/03/22 06:10:25;;;;;;;15.30;9.00;;;6.50;1.00;;;;;;5049363;28;20083;-82
2022/03/22 06:12:53;;;;;;;18.85;10.68;;;6.90;1.00;;;;;;5049100;28;20032;-82
2022/03/22 06:15:22;;;;;;;18.38;10.30;;;7.10;1.00;;;;;;5049614;28;20060;-82
2022/03/22 06:17:56;;;;;;;16.58;9.82;;;7.10;1.00;;;;;;5050041;28;20132;-83
2022/03/22 06:20:24;;;;;;;15.57;9.90;;;6.60;1.00;;;;;;5051536;28;20079;-82
2022/03/22 06:22:50;;;;;;;16.85;9.90;;;6.70;1.00;;;;;;5049468;28;20029;-82
2022/03/22 06:25:18;;;;;;;19.30;9.65;;;7.40;1.00;;;;;;5050090;28;20036;-83
2022/03/22 06:27:47;;;;;;;19.05;10.68;;;7.10;1.00;;;;;;5049808;28;20552;-82
2022/03/22 06:30:15;;;;;;;19.08;10.45;;;7.30;1.00;;;;;;5049636;28;20493;-83
2022/03/22 06:32:47;;;;;;;16.02;9.60;;;6.90;1.00;;;;;;5050194;28;20048;-84
2022/03/22 06:35:14;;;;;;;17.30;10.23;;;6.80;1.00;;;;;;5050495;28;20413;-84
2022/03/22 06:37:40;;;;;;;17.55;11.38;;;7.50;1.00;;;;;;5048305;28;20112;-84
2022/03/22 06:40:07;;;;;;;17.02;11.32;;;7.20;1.00;;;;;;5048111;28;20064;-83
2022/03/22 06:42:33;;;;;;;17.70;10.40;;;6.90;1.00;;;;;;5048090;28;20032;-84
2022/03/22 06:44:59;;;;;;;20.60;11.15;;;7.40;1.00;;;;;;5049594;28;20493;-83
2022/03/22 06:47:25;;;;;;;21.50;11.30;;;7.20;1.00;;;;;;5051838;28;20024;-85
2022/03/22 06:49:50;;;;;;;24.42;12.68;;;7.30;1.00;;;;;;5049627;28;20025;-84
2022/03/22 06:52:16;;;;;;;17.73;10.98;;;7.20;1.00;;;;;;5049907;28;20535;-84
2022/03/22 06:54:41;;;;;;;17.23;10.35;;;7.30;1.00;;;;;;5049767;28;20024;-83
2022/03/22 06:57:07;;;;;;;17.98;11.35;;;7.30;1.00;;;;;;5049223;28;20459;-84
2022/03/22 06:59:34;;;;;;;17.67;11.00;;;7.40;1.00;;;;;;5051634;28;20025;-84
2022/03/22 07:02:00;;;;;;;18.27;11.15;;;7.80;1.00;;;;;;5050502;28;20497;-84
2022/03/22 07:04:27;;;;;;;21.40;11.75;;;7.70;1.00;;;;;;5049496;28;20021;-84
2022/03/22 07:06:53;;;;;;;22.33;11.43;;;7.80;1.00;;;;;;5049389;28;20040;-84
2022/03/22 07:09:18;;;;;;;22.20;10.38;;;8.10;1.00;;;;;;5048145;28;20401;-84
2022/03/22 07:11:49;;;;;;;20.67;10.48;;;7.90;1.00;;;;;;5049239;28;20123;-84
2022/03/22 07:14:16;;;;;;;20.08;10.48;;;7.90;1.00;;;;;;5051386;28;20518;-84
2022/03/22 07:16:42;;;;;;;19.48;10.93;;;8.00;1.00;;;;;;5048072;28;20044;-84
2022/03/22 07:19:07;;;;;;;20.05;10.85;;;8.30;1.00;;;;;;5051537;28;20089;-84
2022/03/22 07:21:33;;;;;;;17.15;11.13;;;8.80;1.00;;;;;;5051917;28;20075;-84
2022/03/22 07:23:58;;;;;;;17.95;10.40;;;8.50;1.00;;;;;;5050714;28;20025;-84
2022/03/22 07:26:24;;;;;;;19.23;10.75;;;8.60;1.00;;;;;;5054939;28;20032;-84
2022/03/22 07:28:50;;;;;;;20.38;10.70;;;8.60;1.00;;;;;;5052456;28;20164;-83
2022/03/22 07:31:15;;;;;;;17.08;10.25;;;9.00;1.00;;;;;;5052575;28;20112;-84
2022/03/22 07:33:41;;;;;;;15.27;9.65;;;8.80;1.00;;;;;;5050269;28;20106;-84
2022/03/22 07:36:06;;;;;;;19.52;10.23;;;8.90;1.00;;;;;;5052855;28;20047;-83
2022/03/22 07:38:32;;;;;;;17.95;10.70;;;9.20;1.00;;;;;;5053413;28;20032;-84
2022/03/22 07:40:58;;;;;;;16.25;8.30;;;9.40;1.00;;;;;;5053888;28;20035;-83
2022/03/22 07:43:23;;;;;;;16.40;9.73;;;9.70;1.00;;;;;;5052969;28;20060;-84
2022/03/22 07:45:49;;;;;;;15.38;9.65;;;9.90;1.00;;;;;;5052713;28;20033;-83
2022/03/22 07:48:16;;;;;;;18.50;10.90;;;10.30;1.00;;;;;;5052324;28;20020;-84
2022/03/22 07:53:26;;;;;;;15.45;9.20;;;10.30;1.00;;;;;;5050616;28;20064;-83
2022/03/22 07:55:51;;;;;;;14.27;8.80;;;10.20;1.00;;;;;;5051127;28;20505;-83
2022/03/22 07:58:17;;;;;;;19.73;9.50;;;10.40;1.00;;;;;;5051404;28;20033;-83
2022/03/22 08:00:43;;;;;;;19.30;9.35;;;10.40;1.00;;;;;;5052177;28;20021;-83
2022/03/22 08:03:12;;;;;;;12.70;8.48;;;10.40;1.00;;;;;;5052331;28;20048;-84
2022/03/22 08:05:39;;;;;;;12.30;8.07;;;10.50;1.00;;;;;;5052339;28;20021;-83
2022/03/22 08:08:06;;;;;;;16.70;8.48;;;10.70;1.00;;;;;;5051565;28;20039;-83
2022/03/22 08:10:32;;;;;;;13.18;8.18;;;10.80;1.00;;;;;;5052218;28;20025;-84
2022/03/22 08:12:59;;;;;;;11.27;8.23;;;10.80;1.00;;;;;;5052802;28;20083;-83
2022/03/22 08:15:25;;;;;;;12.70;8.00;;;10.90;1.00;;;;;;5052160;28;20037;-84
2022/03/22 08:17:51;;;;;;;12.02;8.45;;;11.00;1.00;;;;;;5052455;28;20129;-84
2022/03/22 08:20:18;;;;;;;15.68;8.05;;;10.90;1.00;;;;;;5054715;28;20024;-83
2022/03/22 08:22:52;;;;;;;14.18;8.82;;;11.00;1.00;;;;;;5051481;28;20025;-84
2022/03/22 08:25:23;;;;;;;10.75;8.35;;;11.00;1.00;;;;;;5051990;28;20025;-83
2022/03/22 08:27:49;;;;;;;12.77;8.35;;;11.10;1.00;;;;;;5052338;28;20631;-83
2022/03/22 08:30:18;;;;;;;13.85;8.65;;;11.10;1.00;;;;;;5051117;28;20025;-84
2022/03/22 08:32:43;;;;;;;14.07;8.57;;;11.10;1.00;;;;;;5052525;28;20094;-84
2022/03/22 08:35:09;;;;;;;13.00;8.60;;;11.10;1.00;;;;;;5051857;28;20112;-84
2022/03/22 08:37:36;;;;;;;13.85;8.88;;;11.10;1.00;;;;;;5050247;28;20037;-84
2022/03/22 08:40:03;;;;;;;12.95;8.75;;;11.30;1.00;;;;;;5051816;28;20401;-83
2022/03/22 08:42:28;;;;;;;11.68;8.82;;;11.30;1.00;;;;;;5052789;28;20112;-83
2022/03/22 08:44:54;;;;;;;12.88;8.73;;;11.40;1.00;;;;;;5051531;28;20564;-84
2022/03/22 08:47:20;;;;;;;14.90;10.07;;;11.50;1.00;;;;;;5054231;28;20462;-84
2022/03/22 08:49:45;;;;;;;14.50;10.35;;;11.30;1.00;;;;;;5051473;28;20021;-83
2022/03/22 08:52:11;;;;;;;15.23;10.00;;;11.40;1.00;;;;;;5051668;28;20068;-84
2022/03/22 08:54:36;;;;;;;13.07;9.88;;;11.50;1.00;;;;;;5051765;28;20108;-84
2022/03/22 08:57:02;;;;;;;12.63;10.20;;;11.70;1.00;;;;;;5051963;28;20048;-83
2022/03/22 08:59:28;;;;;;;12.82;9.80;;;11.80;1.00;;;;;;5053384;28;20437;-84
2022/03/22 09:01:53;;;;;;;13.63;10.27;;;11.70;1.00;;;;;;5051279;28;20515;-83
2022/03/22 09:07:03;;;;;;;17.30;10.77;;;12.20;1.00;;;;;;5051060;28;20124;-84
2022/03/22 09:09:30;;;;;;;14.13;9.98;;;12.10;1.00;;;;;;5051158;28;20447;-84
2022/03/22 09:11:56;;;;;;;14.20;9.60;;;12.20;1.00;;;;;;5034124;28;20036;-84
2022/03/22 09:14:22;;;;;;;13.73;10.07;;;12.00;1.00;;;;;;5052110;28;20393;-83
2022/03/22 09:16:47;;;;;;;15.93;10.57;;;12.00;1.00;;;;;;5049604;28;20037;-83
2022/03/22 09:19:13;;;;;;;14.18;10.27;;;12.10;1.00;;;;;;5050188;28;20029;-84
2022/03/22 09:21:39;;;;;;;12.48;10.20;;;12.20;1.00;;;;;;5050782;28;20087;-85
2022/03/22 09:24:05;;;;;;;14.25;11.05;;;12.40;1.00;;;;;;5051109;28;20029;-84
2022/03/22 09:26:31;;;;;;;18.13;10.95;;;13.50;1.00;;;;;;5051994;28;20029;-84
2022/03/22 09:28:58;;;;;;;16.17;11.23;;;15.60;1.00;;;;;;5051563;28;20389;-84
2022/03/22 09:31:24;;;;;;;15.18;10.73;;;16.70;1.00;;;;;;5050720;28;20037;-84
2022/03/22 09:33:52;;;;;;;12.07;10.77;;;17.20;1.00;;;;;;5051318;28;20515;-84
2022/03/22 09:36:18;;;;;;;15.68;12.05;;;17.50;1.00;;;;;;5050440;28;20037;-85
2022/03/22 09:38:45;;;;;;;12.63;10.30;;;17.50;1.00;;;;;;5050311;28;20021;-84
2022/03/22 09:41:13;;;;;;;12.73;10.77;;;17.80;1.00;;;;;;5052170;28;20416;-84
2022/03/22 09:43:47;;;;;;;14.27;11.43;;;18.50;1.00;;;;;;5050407;28;20036;-84
2022/03/22 09:46:18;;;;;;;13.43;11.23;;;18.60;1.00;;;;;;5050633;28;20039;-85
2022/03/22 09:48:48;;;;;;;16.17;11.68;;;19.40;1.00;;;;;;5049999;28;20025;-85
2022/03/22 09:54:00;;;;;;;13.57;11.43;;;19.80;1.00;;;;;;5033952;28;20043;-84
2022/03/22 09:56:30;;;;;;;12.32;10.88;;;20.60;1.00;;;;;;5048500;28;20036;-85
2022/03/22 09:58:58;;;;;;;12.90;11.30;;;20.30;1.00;;;;;;5049181;28;20033;-85
2022/03/22 10:01:23;;;;;;;21.55;17.63;;;20.70;1.00;;;;;;5050600;28;20025;-85
2022/03/22 10:03:57;;;;;;;13.75;11.23;;;20.90;99.90;;;;;;5049826;28;20029;-86
2022/03/22 10:06:23;;;;;;;13.68;11.38;;;21.30;1.00;;;;;;5048873;28;20040;-85
2022/03/22 10:08:50;;;;;;;13.27;11.27;;;21.10;99.90;;;;;;5050423;28;20072;-85
2022/03/22 10:11:15;;;;;;;13.70;10.70;;;21.40;99.90;;;;;;5052311;28;20556;-85
2022/03/22 10:13:55;;;;;;;13.20;10.75;;;21.00;99.90;;;;;;5050146;28;20136;-85
2022/03/22 10:16:22;;;;;;;12.65;11.00;;;21.70;1.00;;;;;;5048335;28;20489;-85
2022/03/22 10:18:47;;;;;;;12.30;11.10;;;21.40;99.90;;;;;;5050187;28;20036;-87
2022/03/22 10:21:13;;;;;;;11.85;10.68;;;21.50;99.90;;;;;;5050620;28;20021;-85
2022/03/22 10:23:54;;;;;;;14.35;10.98;;;21.30;99.90;;;;;;5050591;28;20025;-86
2022/03/22 10:26:20;;;;;;;13.73;11.23;;;22.00;99.90;;;;;;5050430;28;20465;-86
2022/03/22 10:28:53;;;;;;;12.55;11.25;;;22.00;99.90;;;;;;5049387;28;20108;-89
2022/03/22 10:31:20;;;;;;;12.25;10.95;;;22.80;99.90;;;;;;5046522;28;20040;-88
2022/03/22 10:33:53;;;;;;;11.85;10.65;;;22.90;1.00;;;;;;5048518;28;20033;-88
2022/03/22 10:36:21;;;;;;;12.27;11.07;;;23.50;1.00;;;;;;5050374;28;20090;-89
2022/03/22 10:38:59;;;;;;;12.55;11.07;;;24.10;99.90;;;;;;5051015;28;20052;-88
2022/03/22 10:41:32;;;;;;;13.13;11.27;;;24.80;99.90;;;;;;5047254;28;20036;-88
2022/03/22 10:44:13;;;;;;;11.95;10.73;;;24.50;99.90;;;;;;5047940;28;20542;-86
2022/03/22 10:46:42;;;;;;;11.88;10.63;;;25.90;99.90;;;;;;5049578;28;20493;-88
2022/03/22 10:49:18;;;;;;;11.45;10.25;;;26.40;99.90;;;;;;5050276;28;20032;-89
2022/03/22 10:51:46;;;;;;;13.07;10.82;;;25.90;99.90;;;;;;5048848;28;20123;-89
2022/03/22 10:54:17;;;;;;;12.55;11.25;;;26.20;99.90;;;;;;5054519;28;20025;-88
2022/03/22 10:56:53;;;;;;;12.98;11.57;;;25.80;99.90;;;;;;5053282;28;20110;-89
2022/03/22 10:59:21;;;;;;;12.60;10.90;;;25.20;99.90;;;;;;5056080;28;20028;-90
2022/03/22 11:01:47;;;;;;;11.70;10.52;;;25.40;99.90;;;;;;5053593;28;20048;-88
2022/03/22 11:04:17;;;;;;;15.18;10.80;;;26.60;99.90;;;;;;5053954;28;20401;-88
2022/03/22 11:06:46;;;;;;;12.63;10.90;;;26.40;99.90;;;;;;5054295;28;20112;-89
2022/03/22 11:09:24;;;;;;;12.57;10.50;;;27.30;99.90;;;;;;5052527;28;20021;-89
2022/03/22 11:11:50;;;;;;;12.10;10.48;;;27.00;99.90;;;;;;5053766;28;20093;-88
2022/03/22 11:14:17;;;;;;;13.25;10.50;;;25.70;99.90;;;;;;5053691;28;20388;-87
2022/03/22 11:16:47;;;;;;;12.43;11.13;;;26.80;99.90;;;;;;5052932;28;20044;-87
2022/03/22 11:19:15;;;;;;;11.43;10.13;;;27.30;99.90;;;;;;5052634;28;20516;-89
2022/03/22 11:21:41;;;;;;;11.60;10.40;;;27.80;99.90;;;;;;5054049;28;20033;-87
2022/03/22 11:24:12;;;;;;;12.73;11.00;;;27.50;99.90;;;;;;5053617;28;20489;-90
2022/03/22 11:26:46;;;;;;;13.35;10.85;;;26.60;99.90;;;;;;5055158;28;20047;-89
2022/03/22 11:29:17;;;;;;;10.82;9.73;;;27.40;99.90;;;;;;5053838;28;20032;-88
2022/03/22 11:34:09;;;;;;;11.02;9.93;;;28.00;99.90;;;;;;5051071;28;20057;-86
2022/03/22 11:34:29;;;;;;;10.63;9.60;;;28.70;99.90;;;;;;5053043;28;20409;-85
2022/03/22 11:36:58;;;;;;;11.18;10.18;;;28.00;99.90;;;;;;5050994;28;20217;-86
2022/03/22 11:42:18;;;;;;;11.60;10.50;;;28.50;99.90;;;;;;5039558;28;20052;-88
2022/03/22 11:44:56;;;;;;;11.43;10.13;;;30.30;99.90;;;;;;5053181;28;20385;-85
2022/03/22 11:47:22;;;;;;;11.90;9.82;;;30.40;99.90;;;;;;5055004;28;20062;-86
2022/03/22 11:50:01;;;;;;;11.30;9.68;;;30.00;99.90;;;;;;5051267;28;20037;-86
2022/03/22 11:52:43;;;;;;;11.00;9.93;;;30.40;99.90;;;;;;5052229;28;20028;-87
2022/03/22 11:55:12;;;;;;;11.50;10.27;;;29.20;99.90;;;;;;5053062;28;20032;-87
2022/03/22 11:57:47;;;;;;;11.20;10.10;;;28.40;99.90;;;;;;5052856;28;20052;-90
2022/03/22 12:00:22;;;;;;;10.98;9.93;;;28.00;99.90;;;;;;5052244;28;20017;-88
2022/03/22 12:02:53;;;;;;;12.32;10.65;;;27.90;99.90;;;;;;5052792;28;20037;-89
2022/03/22 12:05:20;;;;;;;11.45;10.30;;;26.70;99.90;;;;;;5054885;28;20025;-87
2022/03/22 12:07:47;;;;;;;11.60;10.40;;;27.20;99.90;;;;;;5051117;28;20443;-85
2022/03/22 12:10:15;;;;;;;12.00;10.90;;;28.20;99.90;;;;;;5052546;28;20020;-86
2022/03/22 12:12:48;;;;;;;16.05;10.63;;;28.50;99.90;;;;;;5052478;28;20070;-89
2022/03/22 12:15:16;;;;;;;11.35;10.05;;;29.20;99.90;;;;;;5051543;28;20033;-86
2022/03/22 12:17:44;;;;;;;11.05;9.95;;;29.80;99.90;;;;;;5053391;28;20032;-87
2022/03/22 12:20:12;;;;;;;12.20;10.13;;;29.80;99.90;;;;;;5052384;28;20020;-88
2022/03/22 12:22:46;;;;;;;11.32;10.23;;;29.90;99.90;;;;;;5050786;28;20382;-86
2022/03/22 12:25:15;;;;;;;13.70;10.80;;;28.60;99.90;;;;;;5051957;28;20036;-87
2022/03/22 12:27:51;;;;;;;11.05;9.95;;;28.30;99.90;;;;;;5050352;28;20033;-87
2022/03/22 12:30:18;;;;;;;11.23;9.98;;;28.20;99.90;;;;;;5050195;28;20121;-87
2022/03/22 12:32:44;;;;;;;11.15;10.05;;;28.10;99.90;;;;;;5052131;28;20052;-87
2022/03/22 12:35:13;;;;;;;11.60;9.73;;;28.70;99.90;;;;;;5054379;28;20029;-87
2022/03/22 12:37:39;;;;;;;11.43;10.43;;;29.10;99.90;;;;;;5052090;28;20430;-87
2022/03/22 12:40:05;;;;;;;11.20;9.55;;;28.30;99.90;;;;;;5052312;28;20082;-87
2022/03/22 12:42:31;;;;;;;11.07;10.05;;;27.60;99.90;;;;;;5051780;28;20062;-87
2022/03/22 12:44:58;;;;;;;12.18;10.68;;;28.10;99.90;;;;;;5034885;28;20450;-87
2022/03/22 12:47:24;;;;;;;12.20;9.40;;;28.00;99.90;;;;;;5054133;28;20425;-87
2022/03/22 12:49:49;;;;;;;13.27;9.82;;;28.60;99.90;;;;;;5051769;28;20036;-87
2022/03/22 12:52:15;;;;;;;11.98;10.48;;;29.40;99.90;;;;;;5051792;28;20036;-86
2022/03/22 12:54:43;;;;;;;10.77;9.77;;;28.50;99.90;;;;;;5051671;28;20024;-86
2022/03/22 12:57:14;;;;;;;13.70;10.23;;;28.80;99.90;;;;;;5051733;28;20560;-87
2022/03/22 12:59:40;;;;;;;10.68;9.75;;;28.30;99.90;;;;;;5052489;28;20017;-87
2022/03/22 13:02:07;;;;;;;11.02;9.82;;;28.70;99.90;;;;;;5053185;28;20029;-87
2022/03/22 13:04:47;;;;;;;11.13;9.77;;;28.90;99.90;;;;;;5051477;28;20024;-87
2022/03/22 13:07:30;;;;;;;10.77;9.57;;;27.80;99.90;;;;;;5050002;28;20068;-87
2022/03/22 13:12:56;;;;;;;11.35;10.20;;;27.30;99.90;;;;;;5030038;28;20468;-87
2022/03/22 13:15:21;;;;;;;13.57;10.60;;;26.60;99.90;;;;;;5030289;28;20112;-86
2022/03/22 13:17:49;;;;;;;11.20;10.05;;;26.30;99.90;;;;;;5030641;28;20091;-86
2022/03/22 13:20:24;;;;;;;10.27;9.32;;;25.90;99.90;;;;;;5031167;28;20095;-86